Flight Training


We provide structured training required to obtain a pilots certificate ranging from a Private Pilot up to ATP flying for the major airlines.

If your desire to fly is for personal pleasure the first step is to find a professional FAA licensed flight instructor to begin your journey.

The one-hour introductory flight with an instructor lasts one hour and features a log book and a six-month subscription to Flight Training magazine. After flying you to the training area, your instructor will let you test the controls. Call us now

 

Aviation Weather

Available data for KLDJ from the past 2 hours
LINDEN, NJ
Metar
KLDJ 180035Z AUTO 20004KT 10SM CLR 20/06 A3027 RMK AO2 T02020056

00:35 UTC

Wind: 200° 4kt

Visibility: 10 SM

Sky:

Temp: 20 deg C / 68 deg F

Dewpoint: 6 deg C / 42.8 deg F

Pressure: 30.27 inHg

Pirep (1)
JFK UA /OV JFK/TM 0037/FL270/TP E75L/TB LGT-MOD CHOP 270

Available data for KEWR from the past hour
NEWARK, NJ
TAF
KEWR 172320Z 1800/1906 18007KT P6SM FEW070 FM180400 24005KT P6SM SCT250 FM181400 27009KT P6SM FEW060 FM181800 27012G19KT P6SM BKN060 FM182300 29010KT P6SM SCT060 FM190300 29006KT P6SM FEW060
Pireps (2)
JFK UA /OV JFK/TM 0037/FL270/TP E75L/TB LGT-MOD CHOP 270
SDF UA /OV MAUDE/TM 0016/FLDURD/TP B737/TB LIGHT-MODERATE

Our planes

Some of our students